Time;durP1;ratioP1;P1;durP2;ratioP2;P2;SDS_P1;SDS_P2;PMS_P1;PMS_P2;Temp;Humidity;BMP_temperature;BMP_pressure;BME280_temperature;BME280_humidity;BME280_pressure;Samples;Min_cycle;Max_cycle;Signal;HPM_P1;HPM_P2
2022/07/19 00:02:12;;;;;;;4.28;0.90;;;11.70;99.90;;;;;;5053347;28;20197;-77
2022/07/19 00:04:43;;;;;;;7.70;1.10;;;11.70;99.90;;;;;;5050536;28;20200;-77
2022/07/19 00:07:14;;;;;;;1.38;0.73;;;11.80;99.90;;;;;;5052244;28;20641;-76
2022/07/19 00:09:44;;;;;;;2.70;0.63;;;11.90;99.90;;;;;;5053416;28;20193;-76
2022/07/19 00:12:15;;;;;;;3.42;1.00;;;12.00;99.90;;;;;;5053566;28;20237;-76
2022/07/19 00:14:47;;;;;;;2.80;0.90;;;12.00;99.90;;;;;;5053114;28;20189;-75
2022/07/19 00:17:21;;;;;;;5.82;1.10;;;12.20;99.90;;;;;;5052224;28;20190;-75
2022/07/19 00:19:52;;;;;;;1.95;0.52;;;12.30;99.90;;;;;;5051763;28;20193;-74
2022/07/19 00:22:23;;;;;;;4.60;0.90;;;12.50;99.90;;;;;;5052929;28;20199;-75
2022/07/19 00:24:54;;;;;;;3.40;0.90;;;12.60;99.90;;;;;;5053109;28;20190;-74
2022/07/19 00:27:24;;;;;;;3.72;0.80;;;12.70;99.90;;;;;;5053447;28;20190;-74
2022/07/19 00:29:57;;;;;;;5.28;0.80;;;12.80;99.90;;;;;;5053308;28;20190;-74
2022/07/19 00:32:27;;;;;;;8.23;1.00;;;13.00;99.90;;;;;;5053184;28;20278;-74
2022/07/19 00:34:58;;;;;;;2.58;0.70;;;13.00;99.90;;;;;;5052368;28;20241;-74
2022/07/19 00:37:29;;;;;;;4.03;0.70;;;13.10;99.90;;;;;;5053202;28;20201;-75
2022/07/19 00:39:59;;;;;;;2.25;0.70;;;13.20;99.90;;;;;;5053122;28;20189;-76
2022/07/19 00:42:30;;;;;;;6.88;0.80;;;13.20;99.90;;;;;;5053304;28;20205;-76
2022/07/19 00:45:02;;;;;;;4.50;0.93;;;13.30;99.90;;;;;;5052962;28;20186;-76
2022/07/19 00:47:33;;;;;;;5.72;1.27;;;13.30;99.90;;;;;;5052825;28;20626;-77
2022/07/19 00:50:04;;;;;;;36.63;18.35;;;13.40;99.90;;;;;;5052650;28;20201;-76
2022/07/19 00:52:36;;;;;;;28.88;13.38;;;13.40;99.90;;;;;;5052879;28;20193;-76
2022/07/19 00:55:08;;;;;;;11.23;5.55;;;13.30;99.90;;;;;;5052478;28;20190;-78
2022/07/19 00:57:40;;;;;;;5.88;1.88;;;13.10;99.90;;;;;;5052499;28;20196;-75
2022/07/19 01:00:14;;;;;;;4.90;2.10;;;13.00;99.90;;;;;;5051843;28;20225;-76
2022/07/19 01:02:45;;;;;;;6.15;1.75;;;13.00;99.90;;;;;;5052780;28;20262;-77
2022/07/19 01:05:16;;;;;;;3.90;1.70;;;13.00;99.90;;;;;;5052489;28;20193;-75
2022/07/19 01:07:47;;;;;;;5.05;1.35;;;13.20;99.90;;;;;;5066027;28;20181;-77
2022/07/19 01:10:18;;;;;;;6.43;1.10;;;13.30;99.90;;;;;;5072516;28;20193;-75
2022/07/19 01:12:49;;;;;;;3.55;1.02;;;13.50;99.90;;;;;;5072735;28;20211;-75
2022/07/19 01:15:23;;;;;;;3.60;0.77;;;13.60;99.90;;;;;;5072568;28;20193;-76
2022/07/19 01:17:55;;;;;;;2.80;0.70;;;13.70;99.90;;;;;;5059276;28;20189;-76
2022/07/19 01:20:26;;;;;;;3.78;0.70;;;13.60;99.90;;;;;;5052487;28;20197;-76
2022/07/19 01:22:59;;;;;;;2.65;0.90;;;13.60;99.90;;;;;;5052752;28;20201;-74
2022/07/19 01:25:31;;;;;;;3.10;0.73;;;13.50;99.90;;;;;;5052530;28;20194;-74
2022/07/19 01:28:02;;;;;;;2.22;0.70;;;13.50;99.90;;;;;;5052500;28;20276;-75
2022/07/19 01:30:33;;;;;;;3.85;0.68;;;13.50;99.90;;;;;;5052484;28;20186;-74
2022/07/19 01:33:03;;;;;;;4.75;1.15;;;13.50;99.90;;;;;;5052413;28;20559;-75
2022/07/19 01:35:34;;;;;;;3.30;0.50;;;13.50;99.90;;;;;;5051514;28;20229;-75
2022/07/19 01:38:07;;;;;;;3.05;0.55;;;13.50;99.90;;;;;;5052095;28;20190;-75
2022/07/19 01:40:37;;;;;;;1.20;0.50;;;13.50;99.90;;;;;;5052430;28;20201;-75
2022/07/19 01:43:09;;;;;;;3.63;0.60;;;13.60;99.90;;;;;;5052426;28;20566;-75
2022/07/19 01:45:40;;;;;;;1.55;0.50;;;13.60;99.90;;;;;;5052369;28;20586;-74
2022/07/19 01:48:10;;;;;;;4.13;0.60;;;13.60;99.90;;;;;;5052403;28;20197;-74
2022/07/19 01:50:41;;;;;;;38.45;20.58;;;13.60;99.90;;;;;;5052094;28;20186;-74
2022/07/19 01:53:13;;;;;;;6.95;2.55;;;13.60;99.90;;;;;;5051976;28;20236;-74
2022/07/19 01:55:44;;;;;;;2.60;0.90;;;13.50;99.90;;;;;;5052174;28;20208;-75
2022/07/19 01:58:15;;;;;;;5.22;1.60;;;13.60;99.90;;;;;;5052247;28;20208;-76
2022/07/19 02:00:45;;;;;;;3.70;0.75;;;13.70;99.90;;;;;;5052203;28;20198;-76
2022/07/19 02:03:17;;;;;;;1.77;0.77;;;13.90;99.90;;;;;;5051946;28;20234;-74
2022/07/19 02:05:48;;;;;;;3.20;0.80;;;14.00;99.90;;;;;;5052072;28;20707;-75
2022/07/19 02:08:21;;;;;;;5.32;1.33;;;13.90;99.90;;;;;;5051878;28;20190;-76
2022/07/19 02:10:51;;;;;;;3.55;0.70;;;13.90;99.90;;;;;;5052089;28;20194;-76
2022/07/19 02:13:22;;;;;;;5.07;0.70;;;13.90;99.90;;;;;;5052025;28;20645;-75
2022/07/19 02:15:53;;;;;;;3.25;0.50;;;13.80;99.90;;;;;;5052024;28;20190;-76
2022/07/19 02:18:24;;;;;;;2.15;0.70;;;13.80;99.90;;;;;;5051869;28;20585;-75
2022/07/19 02:20:54;;;;;;;2.03;0.63;;;13.80;99.90;;;;;;5052003;28;20198;-77
2022/07/19 02:23:27;;;;;;;2.60;0.47;;;13.80;99.90;;;;;;5051699;28;20618;-76
2022/07/19 02:25:57;;;;;;;4.22;0.57;;;13.80;99.90;;;;;;5051569;28;20213;-76
2022/07/19 02:28:28;;;;;;;2.60;0.60;;;13.70;99.90;;;;;;5051938;28;20563;-78
2022/07/19 02:30:59;;;;;;;5.65;0.65;;;13.80;99.90;;;;;;5054553;28;20197;-75
2022/07/19 02:33:29;;;;;;;1.67;0.50;;;13.70;99.90;;;;;;5055507;28;20209;-75
2022/07/19 02:36:00;;;;;;;3.42;0.50;;;13.70;99.90;;;;;;5054833;28;20565;-76
2022/07/19 02:38:33;;;;;;;1.92;0.52;;;13.60;99.90;;;;;;5055529;28;20593;-77
2022/07/19 02:41:03;;;;;;;2.28;0.55;;;13.60;99.90;;;;;;5053918;28;20186;-76
2022/07/19 02:43:34;;;;;;;2.72;0.40;;;13.60;99.90;;;;;;5055359;28;20194;-75
2022/07/19 02:46:05;;;;;;;3.50;0.40;;;13.50;99.90;;;;;;5055201;28;20246;-76
2022/07/19 02:48:36;;;;;;;2.90;0.50;;;13.50;99.90;;;;;;5055252;28;20276;-76
2022/07/19 02:51:07;;;;;;;1.25;0.52;;;13.50;99.90;;;;;;5055033;28;20197;-77
2022/07/19 02:53:40;;;;;;;2.33;0.50;;;13.50;99.90;;;;;;5055425;28;20669;-75
2022/07/19 02:56:10;;;;;;;2.55;0.55;;;13.50;99.90;;;;;;5055096;28;20185;-76
2022/07/19 02:58:41;;;;;;;4.78;0.60;;;13.50;99.90;;;;;;5054985;28;20193;-75
2022/07/19 03:01:12;;;;;;;3.03;0.50;;;13.50;99.90;;;;;;5055154;28;20193;-76
2022/07/19 03:03:46;;;;;;;4.05;0.50;;;13.40;99.90;;;;;;5054817;28;20196;-76
2022/07/19 03:06:19;;;;;;;0.93;0.40;;;13.30;99.90;;;;;;5054913;28;20573;-76
2022/07/19 03:08:51;;;;;;;5.60;0.63;;;13.20;99.90;;;;;;5054850;28;20194;-76
2022/07/19 03:11:22;;;;;;;0.52;0.47;;;13.20;99.90;;;;;;5054719;28;20198;-76
2022/07/19 03:13:53;;;;;;;4.68;0.60;;;13.20;99.90;;;;;;5054735;28;20190;-76
2022/07/19 03:16:23;;;;;;;2.53;0.50;;;13.20;99.90;;;;;;5054688;28;20193;-76
2022/07/19 03:18:54;;;;;;;1.85;0.45;;;13.20;99.90;;;;;;5054842;28;20193;-76
2022/07/19 03:21:25;;;;;;;1.85;0.40;;;13.20;99.90;;;;;;5054324;28;20198;-76
2022/07/19 03:23:57;;;;;;;4.20;0.50;;;13.20;99.90;;;;;;5054543;28;20273;-76
2022/07/19 03:26:28;;;;;;;3.22;0.88;;;13.00;99.90;;;;;;5054493;28;20217;-76
2022/07/19 03:28:59;;;;;;;3.50;0.52;;;12.90;99.90;;;;;;5054498;28;20201;-76
2022/07/19 03:31:29;;;;;;;1.33;0.40;;;12.80;99.90;;;;;;5054395;28;20194;-77
2022/07/19 03:34:00;;;;;;;1.58;0.50;;;12.80;99.90;;;;;;5054030;28;20194;-79
2022/07/19 03:36:31;;;;;;;3.38;0.45;;;12.60;99.90;;;;;;5053770;28;20233;-77
2022/07/19 03:39:04;;;;;;;4.18;0.80;;;12.60;99.90;;;;;;5054288;28;20190;-76
2022/07/19 03:41:35;;;;;;;3.97;0.93;;;12.60;99.90;;;;;;5054091;28;20227;-78
2022/07/19 03:44:06;;;;;;;2.60;0.60;;;12.50;99.90;;;;;;5054099;28;20558;-77
2022/07/19 03:46:36;;;;;;;4.32;0.52;;;12.50;99.90;;;;;;5054054;28;20237;-77
2022/07/19 03:49:07;;;;;;;4.70;0.68;;;12.60;99.90;;;;;;5053840;28;20189;-77
2022/07/19 03:51:38;;;;;;;2.58;0.63;;;12.60;99.90;;;;;;5054045;28;20194;-77
2022/07/19 03:54:10;;;;;;;2.65;0.60;;;12.80;99.90;;;;;;5053701;28;20196;-78
2022/07/19 03:56:41;;;;;;;3.55;0.60;;;12.80;99.90;;;;;;5054067;28;20263;-76
2022/07/19 03:59:12;;;;;;;1.77;0.50;;;12.60;99.90;;;;;;5053839;28;20625;-78
2022/07/19 04:01:42;;;;;;;4.22;0.68;;;12.60;99.90;;;;;;5053901;28;20198;-77
2022/07/19 04:04:13;;;;;;;4.13;0.70;;;12.70;99.90;;;;;;5053348;28;20190;-77
2022/07/19 04:06:44;;;;;;;3.67;0.90;;;12.60;99.90;;;;;;5053888;28;20216;-77
2022/07/19 04:09:16;;;;;;;4.40;0.70;;;12.60;99.90;;;;;;5053916;28;20414;-79
2022/07/19 04:11:47;;;;;;;2.38;0.60;;;12.60;99.90;;;;;;5053395;28;20190;-79
2022/07/19 04:14:18;;;;;;;1.63;0.40;;;12.50;99.90;;;;;;5053445;28;20193;-77
2022/07/19 04:16:48;;;;;;;2.20;0.57;;;12.40;99.90;;;;;;5053494;28;20185;-80
2022/07/19 04:19:19;;;;;;;4.32;1.08;;;12.30;99.90;;;;;;5053583;28;20186;-78
2022/07/19 04:21:50;;;;;;;2.33;0.73;;;12.30;99.90;;;;;;5053449;28;20201;-77
2022/07/19 04:24:22;;;;;;;3.38;0.77;;;12.20;99.90;;;;;;5053409;28;20201;-79
2022/07/19 04:26:53;;;;;;;3.95;0.60;;;12.10;99.90;;;;;;5053544;28;20217;-79
2022/07/19 04:29:24;;;;;;;1.88;0.50;;;12.00;99.90;;;;;;5053355;28;20194;-80
2022/07/19 04:31:54;;;;;;;2.42;0.60;;;12.00;99.90;;;;;;5053127;28;20198;-78
2022/07/19 04:34:25;;;;;;;0.63;0.30;;;11.90;99.90;;;;;;5050707;28;20232;-80
2022/07/19 04:36:56;;;;;;;1.45;0.50;;;11.90;99.90;;;;;;5044793;28;20230;-77
2022/07/19 04:39:28;;;;;;;3.35;0.50;;;11.90;99.90;;;;;;5051804;28;20208;-78
2022/07/19 04:41:59;;;;;;;3.85;0.70;;;11.90;99.90;;;;;;5050272;28;20554;-76
2022/07/19 04:44:30;;;;;;;1.27;0.50;;;11.90;99.90;;;;;;5050108;28;20204;-77
2022/07/19 04:47:00;;;;;;;6.75;0.80;;;11.90;99.90;;;;;;5050795;28;20210;-78
2022/07/19 04:49:31;;;;;;;3.78;0.90;;;12.00;99.90;;;;;;5046265;28;20190;-76
2022/07/19 04:52:01;;;;;;;4.35;0.77;;;12.00;99.90;;;;;;5044346;28;20205;-74
2022/07/19 04:54:34;;;;;;;0.70;0.50;;;12.00;99.90;;;;;;5049715;28;20201;-79
2022/07/19 04:57:05;;;;;;;5.07;1.00;;;12.00;99.90;;;;;;5050392;28;20205;-79
2022/07/19 04:59:36;;;;;;;2.92;0.80;;;12.00;99.90;;;;;;5046588;28;20194;-79
2022/07/19 05:02:06;;;;;;;3.13;0.68;;;11.90;99.90;;;;;;5052626;28;20196;-80
2022/07/19 05:04:37;;;;;;;1.85;0.70;;;12.00;99.90;;;;;;5052575;28;20194;-81
2022/07/19 05:07:08;;;;;;;2.72;0.70;;;12.00;99.90;;;;;;5047659;28;20217;-79
2022/07/19 05:09:41;;;;;;;1.85;0.50;;;11.90;99.90;;;;;;5051485;28;20611;-82
2022/07/19 05:12:11;;;;;;;2.30;0.70;;;11.80;99.90;;;;;;5051260;28;20201;-82
2022/07/19 05:14:42;;;;;;;5.40;1.00;;;11.80;99.90;;;;;;5052941;28;20186;-83
2022/07/19 05:17:12;;;;;;;1.58;0.85;;;11.70;99.90;;;;;;5051021;28;20193;-81
2022/07/19 05:19:43;;;;;;;3.00;0.88;;;11.80;99.90;;;;;;5051623;28;20185;-82
2022/07/19 05:22:14;;;;;;;2.83;0.60;;;11.70;99.90;;;;;;5042020;28;20248;-75
2022/07/19 05:24:46;;;;;;;1.58;0.50;;;11.70;99.90;;;;;;5052478;28;20198;-78
2022/07/19 05:27:17;;;;;;;2.72;0.70;;;11.70;99.90;;;;;;5051462;28;20209;-78
2022/07/19 05:29:48;;;;;;;2.40;0.60;;;11.70;99.90;;;;;;5052314;28;20196;-79
2022/07/19 05:32:18;;;;;;;2.45;0.80;;;11.60;99.90;;;;;;5052388;28;20193;-78
2022/07/19 05:34:49;;;;;;;3.80;1.10;;;11.70;99.90;;;;;;5051812;28;20225;-73
2022/07/19 05:37:19;;;;;;;2.40;0.60;;;11.70;99.90;;;;;;5052546;28;20197;-74
2022/07/19 05:39:52;;;;;;;4.10;0.70;;;11.80;99.90;;;;;;5052059;28;20199;-73
2022/07/19 05:42:23;;;;;;;2.60;0.70;;;11.80;99.90;;;;;;5052384;28;20185;-73
2022/07/19 05:44:53;;;;;;;2.97;0.80;;;11.80;99.90;;;;;;5051917;28;20189;-73
2022/07/19 05:47:24;;;;;;;2.97;0.63;;;11.70;99.90;;;;;;5051834;28;20205;-74
2022/07/19 05:49:55;;;;;;;2.30;0.80;;;11.80;99.90;;;;;;5062331;28;20189;-75
2022/07/19 05:52:26;;;;;;;3.58;0.98;;;11.70;99.90;;;;;;5030426;28;20868;-76
2022/07/19 05:54:59;;;;;;;3.85;0.90;;;11.70;99.90;;;;;;5048871;28;20197;-74
2022/07/19 05:57:29;;;;;;;1.33;0.70;;;11.70;99.90;;;;;;5050477;28;20190;-73
2022/07/19 06:00:00;;;;;;;3.05;0.70;;;11.60;99.90;;;;;;5051149;28;20220;-73
2022/07/19 06:02:31;;;;;;;3.10;0.90;;;11.60;99.90;;;;;;5051768;28;20638;-72
2022/07/19 06:05:01;;;;;;;2.38;0.90;;;11.60;99.90;;;;;;5053028;28;20190;-74
2022/07/19 06:07:32;;;;;;;4.25;0.80;;;11.50;99.90;;;;;;5056135;28;20319;-74
2022/07/19 06:10:05;;;;;;;2.65;0.98;;;11.60;99.90;;;;;;5055694;28;20185;-74
2022/07/19 06:12:35;;;;;;;3.67;0.90;;;11.60;99.90;;;;;;5055632;28;20190;-74
2022/07/19 06:15:07;;;;;;;3.83;0.80;;;11.60;99.90;;;;;;5055579;28;20197;-73
2022/07/19 06:17:37;;;;;;;3.67;0.80;;;11.60;99.90;;;;;;5055537;28;20190;-74
2022/07/19 06:20:09;;;;;;;3.67;0.70;;;11.60;99.90;;;;;;5044964;28;20190;-80
2022/07/19 06:22:39;;;;;;;4.10;0.80;;;11.60;99.90;;;;;;5051875;28;20644;-82
2022/07/19 06:25:12;;;;;;;3.95;0.70;;;11.60;99.90;;;;;;5055624;28;20316;-83
2022/07/19 06:27:43;;;;;;;4.13;1.00;;;11.50;99.90;;;;;;5055072;28;20715;-82
2022/07/19 06:30:14;;;;;;;1.60;0.70;;;11.60;99.90;;;;;;5055078;28;20217;-83
2022/07/19 06:32:44;;;;;;;3.95;0.82;;;11.50;99.90;;;;;;5055466;28;20216;-83
2022/07/19 06:35:15;;;;;;;4.65;0.90;;;11.60;99.90;;;;;;5053911;28;20237;-82
2022/07/19 06:37:48;;;;;;;3.42;0.93;;;11.60;99.90;;;;;;5059048;28;20201;-81
2022/07/19 06:40:21;;;;;;;4.53;0.70;;;11.60;99.90;;;;;;5054896;28;20201;-79
2022/07/19 06:42:52;;;;;;;1.48;0.70;;;11.60;99.90;;;;;;5054899;28;20193;-77
2022/07/19 06:45:22;;;;;;;4.40;1.17;;;11.60;99.90;;;;;;5054541;28;20198;-75
2022/07/19 06:47:53;;;;;;;6.45;1.27;;;11.50;99.90;;;;;;5054604;28;20649;-80
2022/07/19 06:50:24;;;;;;;3.17;1.05;;;11.60;99.90;;;;;;5054778;28;20189;-74
2022/07/19 06:52:55;;;;;;;7.15;1.20;;;11.50;99.90;;;;;;5054618;28;20190;-80
2022/07/19 06:55:27;;;;;;;4.63;1.30;;;11.60;99.90;;;;;;5054462;28;20197;-81
2022/07/19 06:57:58;;;;;;;5.97;0.90;;;11.50;99.90;;;;;;5054575;28;20198;-80
2022/07/19 07:00:29;;;;;;;2.97;1.10;;;11.50;99.90;;;;;;5054543;28;20193;-81
2022/07/19 07:02:59;;;;;;;4.18;1.10;;;11.50;99.90;;;;;;5054673;28;20683;-82
2022/07/19 07:05:30;;;;;;;4.80;1.10;;;11.60;99.90;;;;;;5054626;28;20641;-81
2022/07/19 07:08:01;;;;;;;5.55;1.20;;;11.50;99.90;;;;;;5054880;28;20224;-83
2022/07/19 07:10:33;;;;;;;3.45;1.10;;;11.50;99.90;;;;;;5054910;28;20190;-82
2022/07/19 07:13:07;;;;;;;4.80;1.38;;;11.50;99.90;;;;;;5051211;28;20190;-83
2022/07/19 07:15:38;;;;;;;5.15;1.48;;;11.50;99.90;;;;;;5054347;28;20284;-82
2022/07/19 07:18:08;;;;;;;4.43;1.42;;;11.50;99.90;;;;;;5054515;28;20189;-83
2022/07/19 07:20:39;;;;;;;3.90;1.15;;;11.40;99.90;;;;;;5052117;28;20194;-81
2022/07/19 07:23:10;;;;;;;3.78;1.42;;;11.40;99.90;;;;;;5048764;28;20193;-83
2022/07/19 07:25:42;;;;;;;5.90;1.40;;;11.40;99.90;;;;;;5053689;28;20193;-82
2022/07/19 07:28:13;;;;;;;2.47;1.42;;;11.30;99.90;;;;;;5052753;28;20220;-80
2022/07/19 07:30:44;;;;;;;5.68;1.67;;;11.30;99.90;;;;;;5054982;28;20228;-80
2022/07/19 07:33:15;;;;;;;4.47;1.60;;;11.30;99.90;;;;;;5052865;28;20189;-81
2022/07/19 07:35:45;;;;;;;5.22;1.60;;;11.20;99.90;;;;;;5051453;28;20243;-81
2022/07/19 07:38:16;;;;;;;4.13;1.58;;;11.20;99.90;;;;;;5051084;28;20198;-81
2022/07/19 07:40:49;;;;;;;3.85;1.50;;;11.20;99.90;;;;;;5052042;28;20206;-79
2022/07/19 07:43:19;;;;;;;4.03;1.35;;;11.20;99.90;;;;;;5052301;28;20186;-76
2022/07/19 07:45:50;;;;;;;2.20;1.30;;;11.20;99.90;;;;;;5052339;28;20190;-75
2022/07/19 07:48:21;;;;;;;1.92;1.30;;;11.10;99.90;;;;;;5052669;28;20727;-74
2022/07/19 07:50:51;;;;;;;4.65;1.45;;;11.10;99.90;;;;;;5053663;28;20189;-73
2022/07/19 07:53:22;;;;;;;5.25;1.40;;;11.20;99.90;;;;;;5054006;28;20201;-72
2022/07/19 07:55:55;;;;;;;3.70;1.42;;;11.10;99.90;;;;;;5053820;28;20198;-76
2022/07/19 07:58:26;;;;;;;3.03;1.10;;;11.20;99.90;;;;;;5053977;28;20194;-76
2022/07/19 08:00:57;;;;;;;4.10;1.20;;;11.10;99.90;;;;;;5053510;28;20185;-73
2022/07/19 08:03:28;;;;;;;2.08;0.95;;;11.10;99.90;;;;;;5033926;28;20205;-72
2022/07/19 08:05:58;;;;;;;3.58;1.05;;;11.10;99.90;;;;;;5050068;28;20190;-78
2022/07/19 08:08:29;;;;;;;1.67;1.05;;;11.10;99.90;;;;;;5052607;28;20205;-77
2022/07/19 08:11:02;;;;;;;5.85;1.42;;;11.10;99.90;;;;;;5052960;28;20189;-74
2022/07/19 08:13:32;;;;;;;4.55;1.20;;;11.10;99.90;;;;;;5053293;28;20197;-73
2022/07/19 08:16:03;;;;;;;1.92;0.98;;;11.10;99.90;;;;;;5053326;28;20617;-74
2022/07/19 08:18:34;;;;;;;3.00;1.30;;;11.10;99.90;;;;;;5053179;28;20652;-75
2022/07/19 08:21:05;;;;;;;6.85;1.48;;;11.10;99.90;;;;;;5042352;28;20193;-75
2022/07/19 08:23:35;;;;;;;5.65;2.00;;;11.10;99.90;;;;;;5053570;28;20668;-75
2022/07/19 08:26:08;;;;;;;4.05;1.80;;;11.20;99.90;;;;;;5053159;28;20304;-73
2022/07/19 08:28:39;;;;;;;6.53;2.20;;;11.10;99.90;;;;;;5052269;28;20206;-75
2022/07/19 08:31:10;;;;;;;3.25;2.10;;;11.10;99.90;;;;;;5052858;28;20200;-73
2022/07/19 08:33:41;;;;;;;5.53;2.67;;;11.10;99.90;;;;;;5049502;28;20197;-76
2022/07/19 08:36:12;;;;;;;5.57;2.25;;;11.00;99.90;;;;;;5051791;28;20252;-72
2022/07/19 08:38:43;;;;;;;5.32;2.85;;;11.00;99.90;;;;;;5052733;28;20190;-75
2022/07/19 08:41:17;;;;;;;4.30;2.30;;;11.00;99.90;;;;;;5052756;28;20188;-75
2022/07/19 08:43:50;;;;;;;5.38;2.35;;;11.00;99.90;;;;;;5052707;28;20295;-76
2022/07/19 08:46:23;;;;;;;4.35;2.03;;;11.00;99.90;;;;;;5052998;28;20197;-74
2022/07/19 08:48:53;;;;;;;3.22;2.05;;;11.00;99.90;;;;;;5052743;28;20628;-74
2022/07/19 08:51:25;;;;;;;5.00;2.10;;;10.90;99.90;;;;;;5052848;28;20196;-74
2022/07/19 08:53:55;;;;;;;6.80;2.60;;;10.90;99.90;;;;;;5052505;28;20204;-75
2022/07/19 08:59:15;;;;;;;4.28;2.22;;;10.90;99.90;;;;;;5052968;28;20197;-74
2022/07/19 09:01:46;;;;;;;4.90;2.58;;;10.90;99.90;;;;;;5052892;28;20196;-73
2022/07/19 09:04:19;;;;;;;5.03;2.70;;;10.90;99.90;;;;;;5052219;28;20193;-73
2022/07/19 09:06:51;;;;;;;6.10;2.60;;;10.90;99.90;;;;;;5052687;28;20200;-73
2022/07/19 09:09:23;;;;;;;4.30;2.35;;;10.90;99.90;;;;;;5052211;28;20220;-74
2022/07/19 09:11:59;;;;;;;6.35;2.50;;;10.80;99.90;;;;;;5052638;28;20185;-73
2022/07/19 09:14:30;;;;;;;4.18;2.30;;;10.90;99.90;;;;;;5052463;28;20217;-72
2022/07/19 09:17:03;;;;;;;6.78;2.28;;;10.80;99.90;;;;;;5052619;28;20193;-74
2022/07/19 09:19:35;;;;;;;5.47;2.28;;;10.80;99.90;;;;;;5052612;28;20279;-73
2022/07/19 09:22:09;;;;;;;8.02;2.00;;;10.80;99.90;;;;;;5052055;28;20189;-72
2022/07/19 09:24:41;;;;;;;4.78;2.70;;;10.80;99.90;;;;;;5052561;28;20541;-74
2022/07/19 09:27:15;;;;;;;3.67;2.20;;;10.80;99.90;;;;;;5052221;28;20185;-75
2022/07/19 09:29:47;;;;;;;5.18;2.78;;;10.80;99.90;;;;;;5049808;28;20228;-72
2022/07/19 09:32:18;;;;;;;3.92;2.42;;;10.80;99.90;;;;;;5051900;28;20186;-72
2022/07/19 09:34:55;;;;;;;6.00;2.50;;;10.80;99.90;;;;;;5050630;28;20236;-74
2022/07/19 09:37:27;;;;;;;7.05;2.55;;;10.80;99.90;;;;;;5051616;28;20671;-75
2022/07/19 09:39:59;;;;;;;7.47;2.72;;;10.80;99.90;;;;;;5055065;28;20615;-73
2022/07/19 09:42:41;;;;;;;4.68;2.65;;;10.80;99.90;;;;;;5056169;28;20196;-73
2022/07/19 09:45:14;;;;;;;6.88;3.00;;;10.80;99.90;;;;;;5056204;28;20190;-72
2022/07/19 09:47:46;;;;;;;7.00;2.85;;;10.80;99.90;;;;;;5053497;28;20194;-73
2022/07/19 09:50:17;;;;;;;5.50;2.72;;;10.80;99.90;;;;;;5055645;28;20186;-73
2022/07/19 09:52:49;;;;;;;6.40;2.85;;;10.80;99.90;;;;;;5055845;28;20189;-74
2022/07/19 09:55:20;;;;;;;6.30;2.70;;;10.80;99.90;;;;;;5055903;28;20190;-73
2022/07/19 09:57:54;;;;;;;6.60;2.80;;;10.80;99.90;;;;;;5053451;28;20198;-73
2022/07/19 10:00:27;;;;;;;7.82;2.42;;;10.80;99.90;;;;;;5056112;28;20205;-76
2022/07/19 10:02:58;;;;;;;7.47;2.70;;;10.90;99.90;;;;;;5056123;28;20190;-72
2022/07/19 10:05:30;;;;;;;7.57;2.88;;;10.80;99.90;;;;;;5055963;28;20193;-72
2022/07/19 10:08:01;;;;;;;7.97;2.50;;;10.80;99.90;;;;;;5056071;28;20208;-73
2022/07/19 10:10:32;;;;;;;5.90;2.33;;;10.80;99.90;;;;;;5056055;28;20190;-72
2022/07/19 10:13:07;;;;;;;3.47;2.33;;;10.80;99.90;;;;;;5056151;28;20659;-72
2022/07/19 10:15:44;;;;;;;3.35;2.10;;;10.70;99.90;;;;;;5055938;28;20552;-72
2022/07/19 10:18:20;;;;;;;7.35;2.70;;;10.80;99.90;;;;;;5055987;28;20216;-74
2022/07/19 10:20:51;;;;;;;8.27;2.80;;;10.80;99.90;;;;;;5055565;28;20189;-81
2022/07/19 10:23:31;;;;;;;7.57;2.55;;;10.70;99.90;;;;;;5055799;28;20672;-81
2022/07/19 10:26:02;;;;;;;3.55;2.40;;;10.80;99.90;;;;;;5055652;28;20192;-80
2022/07/19 10:28:40;;;;;;;3.38;2.22;;;10.70;99.90;;;;;;5055676;28;20217;-80
2022/07/19 10:31:30;;;;;;;6.50;2.50;;;10.80;99.90;;;;;;5055589;28;20186;-81
2022/07/19 10:34:05;;;;;;;5.13;2.40;;;10.80;99.90;;;;;;5054541;28;20218;-78
2022/07/19 10:36:46;;;;;;;7.03;2.85;;;10.80;99.90;;;;;;5055178;28;20229;-81
2022/07/19 10:39:33;;;;;;;4.60;2.63;;;10.80;99.90;;;;;;5055796;28;20228;-81
2022/07/19 10:42:18;;;;;;;7.13;2.70;;;10.80;99.90;;;;;;5055407;28;20198;-81
2022/07/19 10:45:20;;;;;;;4.78;2.60;;;10.80;99.90;;;;;;5055714;28;20289;-80
2022/07/19 10:48:09;;;;;;;5.28;2.90;;;10.80;99.90;;;;;;5055304;28;20645;-82
2022/07/19 10:50:48;;;;;;;4.72;3.00;;;10.80;99.90;;;;;;5054270;28;20208;-80
2022/07/19 10:53:57;;;;;;;5.70;2.58;;;10.80;99.90;;;;;;5055228;28;20198;-81
2022/07/19 10:56:58;;;;;;;8.13;2.80;;;10.80;99.90;;;;;;5055182;28;20229;-82
2022/07/19 10:59:45;;;;;;;6.18;2.92;;;10.70;99.90;;;;;;5055095;28;20631;-81
2022/07/19 11:02:30;;;;;;;4.22;2.58;;;10.70;99.90;;;;;;5054936;28;20645;-82
2022/07/19 11:05:00;;;;;;;6.95;2.63;;;10.70;99.90;;;;;;5054880;28;20205;-82
2022/07/19 11:07:31;;;;;;;4.03;3.00;;;10.70;99.90;;;;;;5054916;28;20196;-81
2022/07/19 11:10:03;;;;;;;3.22;2.65;;;10.70;99.90;;;;;;5054713;28;20217;-81
2022/07/19 11:12:36;;;;;;;7.00;3.30;;;10.70;99.90;;;;;;5054837;28;20226;-83
2022/07/19 11:15:12;;;;;;;6.07;3.08;;;10.60;99.90;;;;;;5054671;28;20200;-82
2022/07/19 11:17:54;;;;;;;7.32;2.70;;;10.70;99.90;;;;;;5054558;28;20190;-82
2022/07/19 11:20:27;;;;;;;3.72;2.78;;;10.70;99.90;;;;;;5054663;28;20629;-82
2022/07/19 11:22:58;;;;;;;4.65;2.95;;;10.70;99.90;;;;;;5054585;28;20676;-83
2022/07/19 11:25:31;;;;;;;5.43;3.10;;;10.70;99.90;;;;;;5054240;28;20212;-78
2022/07/19 11:28:02;;;;;;;7.07;3.47;;;10.70;99.90;;;;;;5054574;28;20190;-81
2022/07/19 11:30:34;;;;;;;4.78;2.80;;;10.70;99.90;;;;;;5054344;28;20222;-82
2022/07/19 11:33:08;;;;;;;5.07;2.92;;;10.70;99.90;;;;;;5054253;28;20193;-81
2022/07/19 11:35:38;;;;;;;3.55;2.55;;;10.60;99.90;;;;;;5053401;28;20245;-81
2022/07/19 11:38:09;;;;;;;4.32;2.85;;;10.60;99.90;;;;;;5054369;28;20206;-81
2022/07/19 11:40:40;;;;;;;8.18;2.92;;;10.60;99.90;;;;;;5054269;28;20652;-80
2022/07/19 11:43:11;;;;;;;5.10;2.42;;;10.60;99.90;;;;;;5054268;28;20200;-81
2022/07/19 11:45:46;;;;;;;7.47;2.78;;;10.60;99.90;;;;;;5054164;28;20193;-82
2022/07/19 11:48:27;;;;;;;7.13;4.00;;;10.60;99.90;;;;;;5053905;28;20204;-80
2022/07/19 11:51:06;;;;;;;8.23;3.50;;;10.50;99.90;;;;;;5054131;28;20197;-80
2022/07/19 11:53:38;;;;;;;4.20;2.75;;;10.50;99.90;;;;;;5053953;28;20197;-82
2022/07/19 11:56:19;;;;;;;4.13;2.53;;;10.50;99.90;;;;;;5054063;28;20190;-81
2022/07/19 11:58:50;;;;;;;6.22;2.92;;;10.40;99.90;;;;;;5054071;28;20189;-81
2022/07/19 12:01:27;;;;;;;6.07;2.72;;;10.40;99.90;;;;;;5053772;28;20190;-82
2022/07/19 12:04:03;;;;;;;5.20;3.05;;;10.40;99.90;;;;;;5053080;28;20561;-81
2022/07/19 12:06:42;;;;;;;5.45;2.47;;;10.40;99.90;;;;;;5053796;28;20644;-80
2022/07/19 12:09:15;;;;;;;5.32;2.53;;;10.40;99.90;;;;;;5053578;28;20220;-82
2022/07/19 12:11:47;;;;;;;7.32;2.72;;;10.40;99.90;;;;;;5053697;28;20193;-80
2022/07/19 12:14:23;;;;;;;6.78;2.88;;;10.40;99.90;;;;;;5053777;28;20190;-80
2022/07/19 12:17:10;;;;;;;3.83;2.75;;;10.40;99.90;;;;;;5053405;28;20201;-81
2022/07/19 12:19:44;;;;;;;5.22;2.53;;;10.40;99.90;;;;;;5053683;28;20229;-80
2022/07/19 12:22:31;;;;;;;5.05;2.70;;;10.40;99.90;;;;;;5053511;28;20655;-80
2022/07/19 12:25:02;;;;;;;4.55;2.88;;;10.40;99.90;;;;;;5053526;28;20707;-80
2022/07/19 12:27:33;;;;;;;5.72;2.85;;;10.40;99.90;;;;;;5053540;28;20194;-80
2022/07/19 12:30:05;;;;;;;5.65;2.58;;;10.50;99.90;;;;;;5053496;28;20224;-80
2022/07/19 12:32:37;;;;;;;6.13;2.83;;;10.50;99.90;;;;;;5053269;28;20190;-81
2022/07/19 12:35:12;;;;;;;7.40;3.20;;;10.50;99.90;;;;;;5052310;28;20245;-82
2022/07/19 12:37:43;;;;;;;7.35;3.17;;;10.40;99.90;;;;;;5053078;28;20203;-72
2022/07/19 12:40:16;;;;;;;4.78;2.78;;;10.50;99.90;;;;;;5053136;28;20201;-74
2022/07/19 12:42:48;;;;;;;5.20;2.90;;;10.40;99.90;;;;;;5053141;28;20193;-73
2022/07/19 12:45:21;;;;;;;6.15;2.83;;;10.40;99.90;;;;;;5052981;28;20205;-71
2022/07/19 12:47:53;;;;;;;5.20;3.20;;;10.40;99.90;;;;;;5053565;28;20190;-72
2022/07/19 12:50:29;;;;;;;6.47;2.70;;;10.40;99.90;;;;;;5052974;28;20629;-72
2022/07/19 12:53:01;;;;;;;8.50;2.97;;;10.40;99.90;;;;;;5052855;28;20200;-74
2022/07/19 12:55:33;;;;;;;9.07;3.00;;;10.40;99.90;;;;;;5052849;28;20193;-73
2022/07/19 12:58:05;;;;;;;6.90;2.90;;;10.30;99.90;;;;;;5052914;28;20233;-72
2022/07/19 13:00:37;;;;;;;4.97;2.78;;;10.20;99.90;;;;;;5052736;28;20637;-72
2022/07/19 13:03:08;;;;;;;5.65;2.65;;;10.30;99.90;;;;;;5052704;28;20660;-72
2022/07/19 13:05:41;;;;;;;4.75;3.13;;;10.20;99.90;;;;;;5052823;28;20303;-73
2022/07/19 13:08:12;;;;;;;6.57;2.88;;;10.20;99.90;;;;;;5052761;28;20568;-72
2022/07/19 13:10:45;;;;;;;9.02;3.28;;;10.20;99.90;;;;;;5052623;28;20232;-72
2022/07/19 13:13:16;;;;;;;6.32;3.10;;;10.20;99.90;;;;;;5052071;28;20190;-71
2022/07/19 13:15:46;;;;;;;5.72;3.00;;;10.20;99.90;;;;;;5052282;28;20193;-72